createdAt,value
2018-06-03T00:00:15.329Z,42.03
2018-06-03T00:00:49.215Z,44.40
2018-06-03T00:01:23.437Z,44.33
2018-06-03T00:01:56.901Z,47.97
2018-06-03T00:02:31.142Z,42.40
2018-06-03T00:03:04.613Z,44.73
2018-06-03T00:03:37.746Z,41.87
2018-06-03T00:04:11.243Z,41.50
2018-06-03T00:04:45.480Z,40.60
2018-06-03T00:05:18.978Z,40.13
2018-06-03T00:05:52.640Z,41.33
2018-06-03T00:06:27.003Z,45.63
2018-06-03T00:07:01.243Z,49.80
2018-06-03T00:07:34.703Z,42.10
2018-06-03T00:08:08.181Z,43.07
2018-06-03T00:08:41.637Z,42.70
2018-06-03T00:09:15.154Z,42.13
2018-06-03T00:09:48.729Z,39.67
2018-06-03T00:10:22.409Z,40.20
2018-06-03T00:10:55.861Z,41.63
2018-06-03T00:11:29.349Z,42.57
2018-06-03T00:12:02.819Z,44.87
2018-06-03T00:12:36.287Z,41.23
2018-06-03T00:13:10.520Z,41.47
2018-06-03T00:13:43.989Z,41.87
2018-06-03T00:14:17.475Z,40.20
2018-06-03T00:14:50.935Z,48.40
2018-06-03T00:15:25.177Z,52.57
2018-06-03T00:15:58.633Z,46.07
2018-06-03T00:16:32.915Z,49.40
2018-06-03T00:17:06.505Z,44.87
2018-06-03T00:17:43.028Z,45.70
2018-06-03T00:18:16.496Z,49.73
2018-06-03T00:18:49.979Z,49.10
2018-06-03T00:19:23.480Z,55.97
2018-06-03T00:19:56.937Z,45.93
2018-06-03T00:22:33.883Z,45.20
2018-06-03T00:23:06.961Z,50.67
2018-06-03T00:23:40.335Z,54.70
2018-06-03T00:24:13.593Z,50.00
2018-06-03T00:24:46.871Z,48.87
2018-06-03T00:25:20.155Z,48.73
2018-06-03T00:25:53.455Z,45.63
2018-06-03T00:26:26.719Z,55.50
2018-06-03T00:27:00.023Z,49.90
2018-06-03T00:27:33.685Z,52.73
2018-06-03T00:28:07.043Z,53.23
2018-06-03T00:28:40.327Z,47.73
2018-06-03T00:29:13.629Z,54.40
2018-06-03T00:29:46.989Z,52.13
2018-06-03T00:30:20.331Z,53.77
2018-06-03T00:30:53.744Z,50.83
2018-06-03T00:31:27.049Z,54.90
2018-06-03T00:32:00.353Z,56.17
2018-06-03T00:32:33.733Z,53.90
2018-06-03T00:33:07.072Z,56.57
2018-06-03T00:33:40.382Z,50.00
2018-06-03T00:34:13.680Z,50.80
2018-06-03T00:34:47.008Z,52.53
2018-06-03T00:35:20.629Z,51.57
2018-06-03T00:36:05.510Z,52.83
2018-06-03T00:36:46.427Z,54.20
2018-06-03T00:37:19.757Z,52.37
2018-06-03T00:37:53.283Z,54.13
2018-06-03T00:38:26.591Z,54.60
2018-06-03T00:38:59.939Z,56.87
2018-06-03T00:39:33.219Z,53.13
2018-06-03T00:40:06.698Z,61.30
2018-06-03T00:40:40.044Z,62.43
2018-06-03T00:41:13.497Z,60.63
2018-06-03T00:41:46.807Z,58.90
2018-06-03T00:42:20.456Z,64.20
2018-06-03T00:42:53.750Z,63.20
2018-06-03T00:43:27.047Z,62.30
2018-06-03T00:44:00.328Z,64.97
2018-06-03T00:44:33.891Z,62.53
2018-06-03T00:45:07.196Z,66.40
2018-06-03T00:45:40.516Z,64.90
2018-06-03T00:46:13.820Z,66.10
2018-06-03T00:46:47.151Z,69.87
2018-06-03T00:47:20.457Z,65.00
2018-06-03T00:47:53.736Z,62.73
2018-06-03T00:48:27.011Z,65.67
2018-06-03T00:49:00.295Z,69.30
2018-06-03T00:49:33.605Z,75.17
2018-06-03T00:50:06.898Z,65.73
2018-06-03T00:50:40.226Z,62.03
2018-06-03T00:51:13.521Z,63.77
2018-06-03T00:51:46.780Z,61.67
2018-06-03T00:52:20.082Z,69.37
2018-06-03T00:52:53.395Z,69.33
2018-06-03T00:53:26.670Z,69.10
2018-06-03T00:53:59.950Z,65.20
2018-06-03T00:54:33.557Z,60.77
2018-06-03T00:55:13.965Z,65.27
2018-06-03T00:55:47.282Z,68.63
2018-06-03T00:56:32.130Z,70.17
2018-06-03T00:57:11.162Z,65.40
2018-06-03T00:57:44.493Z,64.33
2018-06-03T00:58:17.797Z,70.10
2018-06-03T00:58:51.097Z,63.30
2018-06-03T00:59:24.438Z,64.37
2018-06-03T00:59:57.716Z,67.43
2018-06-03T01:00:31.014Z,62.37
2018-06-03T01:01:04.410Z,64.43
2018-06-03T01:01:37.709Z,76.30
2018-06-03T01:02:10.990Z,66.07
2018-06-03T01:02:44.916Z,69.80
2018-06-03T01:03:17.983Z,70.03
2018-06-03T01:03:51.328Z,66.57
2018-06-03T01:04:24.642Z,66.47
2018-06-03T01:04:57.952Z,66.70
2018-06-03T01:05:31.262Z,67.77
2018-06-03T01:06:04.600Z,66.03
2018-06-03T01:06:37.658Z,64.37
2018-06-03T01:07:10.932Z,67.07
2018-06-03T01:07:44.229Z,66.27
2018-06-03T01:08:17.345Z,63.00
2018-06-03T01:08:50.635Z,68.60
2018-06-03T01:09:23.987Z,66.47
2018-06-03T01:09:57.255Z,63.73
2018-06-03T01:10:30.549Z,65.37
2018-06-03T01:11:03.804Z,67.47
2018-06-03T01:11:37.093Z,70.47
2018-06-03T01:12:10.372Z,69.20
2018-06-03T01:12:43.672Z,68.87
2018-06-03T01:13:16.972Z,64.03
2018-06-03T01:13:50.251Z,62.13
2018-06-03T01:14:23.557Z,63.67
2018-06-03T01:14:57.183Z,71.23
2018-06-03T01:15:30.229Z,67.10
2018-06-03T01:16:03.505Z,64.00
2018-06-03T01:16:36.797Z,68.57
2018-06-03T01:17:10.078Z,70.70
2018-06-03T01:17:43.359Z,68.17
2018-06-03T01:18:16.695Z,75.13
2018-06-03T01:18:49.979Z,85.43
2018-06-03T01:19:23.307Z,67.07
2018-06-03T01:19:56.617Z,76.03
2018-06-03T01:20:29.903Z,73.27
2018-06-03T01:21:03.203Z,70.03
2018-06-03T01:21:36.481Z,71.17
2018-06-03T01:22:09.810Z,74.47
2018-06-03T01:22:43.127Z,71.70
2018-06-03T01:23:16.383Z,70.50
2018-06-03T01:23:49.653Z,76.40
2018-06-03T01:24:22.964Z,73.93
2018-06-03T01:24:56.221Z,69.70
2018-06-03T01:25:29.521Z,77.93
2018-06-03T01:26:02.807Z,74.00
2018-06-03T01:26:36.061Z,77.90
2018-06-03T01:27:10.079Z,73.93
2018-06-03T01:27:43.381Z,87.87
2018-06-03T01:28:16.639Z,75.50
2018-06-03T01:28:49.927Z,76.00
2018-06-03T01:29:23.211Z,75.13
2018-06-03T01:29:56.487Z,79.53
2018-06-03T01:30:29.790Z,77.13
2018-06-03T01:31:03.074Z,77.00
2018-06-03T01:31:36.709Z,78.43
2018-06-03T01:32:10.020Z,74.10
2018-06-03T01:32:43.369Z,72.80
2018-06-03T01:33:16.676Z,82.33
2018-06-03T01:33:49.742Z,82.20
2018-06-03T01:34:23.032Z,77.60
2018-06-03T01:34:56.301Z,77.40
2018-06-03T01:35:29.614Z,78.70
2018-06-03T01:36:02.906Z,80.53
2018-06-03T01:36:36.169Z,77.83
2018-06-03T01:37:09.437Z,77.50
2018-06-03T01:37:43.043Z,74.23
2018-06-03T01:38:16.329Z,81.07
2018-06-03T01:38:49.609Z,78.13
2018-06-03T01:39:22.885Z,80.53
2018-06-03T01:39:56.155Z,78.63
2018-06-03T01:40:29.456Z,83.27
2018-06-03T01:41:02.718Z,75.70
2018-06-03T01:41:36.093Z,79.67
2018-06-03T01:42:09.382Z,75.87
2018-06-03T01:42:42.697Z,83.27
2018-06-03T01:43:16.016Z,82.30
2018-06-03T01:43:49.280Z,84.47
2018-06-03T01:44:22.554Z,80.03
2018-06-03T01:44:55.873Z,83.60
2018-06-03T01:45:29.223Z,77.90
2018-06-03T01:46:02.864Z,75.53
2018-06-03T01:46:36.132Z,75.83
2018-06-03T01:47:09.424Z,80.13
2018-06-03T01:47:42.702Z,77.17
2018-06-03T01:48:16.030Z,80.30
2018-06-03T01:48:49.344Z,82.57
2018-06-03T01:49:22.643Z,83.13
2018-06-03T01:49:55.928Z,78.23
2018-06-03T01:50:29.259Z,80.33
2018-06-03T01:51:02.536Z,79.40
2018-06-03T01:51:35.821Z,77.07
2018-06-03T01:52:09.096Z,79.17
2018-06-03T01:52:42.358Z,80.90
2018-06-03T01:53:15.647Z,76.00
2018-06-03T01:53:48.959Z,77.80
2018-06-03T01:54:22.240Z,83.43
2018-06-03T01:54:55.518Z,90.90
2018-06-03T01:55:29.122Z,85.50
2018-06-03T01:56:02.426Z,88.50
2018-06-03T01:56:35.736Z,86.80
2018-06-03T01:57:09.048Z,86.63
2018-06-03T01:57:42.347Z,87.27
2018-06-03T01:58:15.646Z,91.10
2018-06-03T01:58:49.045Z,86.20
2018-06-03T01:59:22.512Z,81.53
2018-06-03T01:59:55.858Z,85.67
2018-06-03T02:00:29.179Z,87.50
2018-06-03T02:01:02.492Z,90.13
2018-06-03T02:01:35.790Z,112.27
2018-06-03T02:02:09.070Z,111.90
2018-06-03T02:02:42.393Z,122.00
2018-06-03T02:03:15.680Z,111.50
2018-06-03T02:03:49.054Z,108.40
2018-06-03T02:04:22.355Z,118.97
2018-06-03T02:04:55.634Z,106.30
2018-06-03T02:05:29.255Z,112.30
2018-06-03T02:06:02.534Z,120.23
2018-06-03T02:06:35.783Z,119.10
2018-06-03T02:07:09.058Z,122.87
2018-06-03T02:07:42.382Z,115.47
2018-06-03T02:08:15.683Z,119.37
2018-06-03T02:08:49.016Z,129.37
2018-06-03T02:09:22.344Z,116.30
2018-06-03T02:09:55.636Z,144.90
2018-06-03T02:10:29.278Z,127.47
2018-06-03T02:11:02.560Z,127.07
2018-06-03T02:11:35.848Z,139.33
2018-06-03T02:12:09.178Z,140.70
2018-06-03T02:12:42.468Z,141.33
2018-06-03T02:13:15.746Z,140.17
2018-06-03T02:15:25.576Z,138.57
2018-06-03T02:15:58.885Z,132.47
2018-06-03T02:16:32.166Z,125.60
2018-06-03T02:17:05.960Z,154.33
2018-06-03T02:17:39.282Z,137.13
2018-06-03T02:18:12.558Z,154.57
2018-06-03T02:18:45.846Z,156.93
2018-06-03T02:19:19.186Z,152.33
2018-06-03T02:19:52.496Z,153.60
2018-06-03T02:20:26.506Z,151.93
2018-06-03T02:20:59.801Z,151.73
2018-06-03T02:21:33.128Z,145.97
2018-06-03T02:22:06.430Z,164.07
2018-06-03T02:22:39.730Z,142.47
2018-06-03T02:23:12.988Z,147.27
2018-06-03T02:23:46.400Z,138.40
2018-06-03T02:24:19.704Z,150.80
2018-06-03T02:24:53.032Z,178.67
2018-06-03T02:25:26.317Z,152.50
2018-06-03T02:25:59.650Z,161.87
2018-06-03T02:26:32.952Z,153.13
2018-06-03T02:27:06.248Z,143.53
2018-06-03T02:27:39.580Z,152.63
2018-06-03T02:28:12.850Z,144.13
2018-06-03T02:28:46.130Z,150.13
2018-06-03T02:29:19.478Z,145.30
2018-06-03T02:29:52.765Z,147.20
2018-06-03T02:30:26.048Z,163.20
2018-06-03T02:30:59.364Z,155.97
2018-06-03T02:31:32.666Z,144.43
2018-06-03T02:32:06.574Z,148.60
2018-06-03T02:32:39.888Z,154.87
2018-06-03T02:33:13.184Z,146.50
2018-06-03T02:33:46.482Z,167.83
2018-06-03T02:34:19.794Z,155.63
2018-06-03T02:34:53.074Z,169.87
2018-06-03T02:35:26.603Z,161.70
2018-06-03T02:35:59.929Z,144.03
2018-06-03T02:36:33.200Z,159.13
2018-06-03T02:37:06.510Z,154.23
2018-06-03T02:37:39.840Z,159.73
2018-06-03T02:38:13.148Z,157.23
2018-06-03T02:38:46.756Z,147.30
2018-06-03T02:39:20.076Z,155.10
2018-06-03T02:39:53.366Z,153.87
2018-06-03T02:40:26.655Z,149.83
2018-06-03T02:40:59.980Z,155.70
2018-06-03T02:41:33.277Z,149.07
2018-06-03T02:42:06.591Z,152.77
2018-06-03T02:42:39.854Z,155.53
2018-06-03T02:43:13.176Z,149.80
2018-06-03T02:43:46.814Z,145.60
2018-06-03T02:44:20.111Z,144.50
2018-06-03T02:44:53.458Z,145.97
2018-06-03T02:45:26.761Z,154.33
2018-06-03T02:46:00.049Z,140.10
2018-06-03T02:46:33.323Z,138.37
2018-06-03T02:47:06.665Z,141.57
2018-06-03T02:47:40.044Z,153.30
2018-06-03T02:48:13.343Z,152.77
2018-06-03T02:48:46.619Z,140.77
2018-06-03T02:49:19.892Z,139.63
2018-06-03T02:49:53.211Z,143.80
2018-06-03T02:50:26.618Z,137.47
2018-06-03T02:50:59.661Z,133.37
2018-06-03T02:51:32.946Z,140.67
2018-06-03T02:52:06.248Z,132.00
2018-06-03T02:52:39.530Z,139.40
2018-06-03T02:53:12.818Z,147.73
2018-06-03T02:53:46.121Z,136.47
2018-06-03T02:54:19.438Z,136.43
2018-06-03T02:54:52.748Z,133.77
2018-06-03T02:55:26.062Z,149.57
2018-06-03T02:55:59.350Z,153.20
2018-06-03T02:56:32.626Z,148.63
2018-06-03T02:57:05.906Z,140.83
2018-06-03T02:57:39.202Z,138.50
2018-06-03T02:58:12.515Z,145.63
2018-06-03T02:58:45.812Z,143.10
2018-06-03T02:59:19.112Z,142.17
2018-06-03T02:59:52.391Z,145.50
2018-06-03T03:00:26.018Z,134.50
2018-06-03T03:00:59.306Z,140.30
2018-06-03T03:01:32.596Z,145.23
2018-06-03T03:02:05.905Z,135.90
2018-06-03T03:02:39.259Z,143.90
2018-06-03T03:03:12.553Z,138.73
2018-06-03T03:03:45.862Z,143.97
2018-06-03T03:04:19.158Z,138.57
2018-06-03T03:04:52.442Z,141.33
2018-06-03T03:05:26.094Z,144.87
2018-06-03T03:05:59.374Z,133.87
2018-06-03T03:06:32.674Z,133.63
2018-06-03T03:07:05.976Z,143.00
2018-06-03T03:07:39.358Z,136.70
2018-06-03T03:08:12.738Z,134.87
2018-06-03T03:08:46.055Z,127.57
2018-06-03T03:09:19.357Z,135.83
2018-06-03T03:09:52.682Z,132.23
2018-06-03T03:10:26.028Z,129.87
2018-06-03T03:10:59.655Z,136.47
2018-06-03T03:11:32.930Z,136.20
2018-06-03T03:12:06.230Z,135.40
2018-06-03T03:12:39.528Z,139.70
2018-06-03T03:13:12.835Z,140.77
2018-06-03T03:13:45.906Z,139.67
2018-06-03T03:14:19.232Z,145.10
2018-06-03T03:14:52.578Z,135.17
2018-06-03T03:15:25.892Z,130.63
2018-06-03T03:15:59.176Z,136.83
2018-06-03T03:16:32.783Z,137.27
2018-06-03T03:17:06.106Z,129.70
2018-06-03T03:17:39.406Z,126.03
2018-06-03T03:18:12.683Z,143.33
2018-06-03T03:18:46.008Z,127.97
2018-06-03T03:19:19.300Z,128.37
2018-06-03T03:19:52.596Z,134.53
2018-06-03T03:20:25.928Z,125.80
2018-06-03T03:20:59.224Z,131.23
2018-06-03T03:21:32.510Z,129.73
2018-06-03T03:22:05.810Z,125.07
2018-06-03T03:22:39.096Z,134.93
2018-06-03T03:23:12.394Z,135.07
2018-06-03T03:23:45.680Z,124.80
2018-06-03T03:24:18.968Z,133.00
2018-06-03T03:24:52.234Z,134.00
2018-06-03T03:25:25.300Z,154.77
2018-06-03T03:25:58.622Z,134.33
2018-06-03T03:26:31.954Z,137.40
2018-06-03T03:27:05.288Z,129.70
2018-06-03T03:27:38.557Z,133.13
2018-06-03T03:28:11.856Z,125.80
2018-06-03T03:28:45.160Z,129.30
2018-06-03T03:29:18.434Z,132.33
2018-06-03T03:29:51.710Z,135.37
2018-06-03T03:30:25.324Z,121.80
2018-06-03T03:30:58.636Z,125.53
2018-06-03T03:31:31.943Z,133.80
2018-06-03T03:32:05.252Z,126.40
2018-06-03T03:32:38.606Z,134.90
2018-06-03T03:33:11.887Z,141.03
2018-06-03T03:33:45.166Z,128.27
2018-06-03T03:34:18.456Z,127.00
2018-06-03T03:34:51.756Z,121.80
2018-06-03T03:35:25.056Z,129.40
2018-06-03T03:35:58.358Z,123.50
2018-06-03T03:36:31.651Z,135.97
2018-06-03T03:37:04.923Z,129.03
2018-06-03T03:37:38.521Z,126.23
2018-06-03T03:38:11.805Z,133.60
2018-06-03T03:38:45.458Z,125.37
2018-06-03T03:39:18.728Z,119.30
2018-06-03T03:39:51.992Z,132.43
2018-06-03T03:40:25.295Z,128.10
2018-06-03T03:40:58.614Z,126.90
2018-06-03T03:41:31.895Z,136.20
2018-06-03T03:42:05.204Z,130.17
2018-06-03T03:42:38.532Z,131.73
2018-06-03T03:43:11.724Z,129.00
2018-06-03T03:43:45.027Z,118.17
2018-06-03T03:44:18.297Z,125.83
2018-06-03T03:44:51.593Z,130.03
2018-06-03T03:45:24.860Z,126.07
2018-06-03T03:45:58.165Z,127.93
2018-06-03T03:46:31.438Z,123.80
2018-06-03T03:47:04.821Z,135.23
2018-06-03T03:47:38.134Z,127.50
2018-06-03T03:48:11.411Z,127.77
2018-06-03T03:48:44.688Z,121.90
2018-06-03T03:49:18.004Z,125.60
2018-06-03T03:49:51.524Z,123.13
2018-06-03T03:50:24.820Z,122.77
2018-06-03T03:50:58.110Z,116.90
2018-06-03T03:51:31.418Z,118.07
2018-06-03T03:52:04.856Z,118.83
2018-06-03T03:52:38.163Z,128.70
2018-06-03T03:53:11.481Z,124.50
2018-06-03T03:53:44.818Z,115.63
2018-06-03T03:54:18.101Z,127.37
2018-06-03T03:54:51.405Z,122.93
2018-06-03T03:55:24.703Z,117.83
2018-06-03T03:55:57.929Z,127.87
2018-06-03T03:56:31.589Z,120.47
2018-06-03T03:57:05.026Z,122.00
2018-06-03T03:57:38.384Z,116.13
2018-06-03T03:58:11.695Z,127.03
2018-06-03T03:58:45.033Z,121.10
2018-06-03T03:59:18.359Z,122.70
2018-06-03T03:59:51.678Z,133.33
2018-06-03T04:00:24.974Z,124.77
2018-06-03T04:00:58.285Z,124.97
2018-06-03T04:01:31.652Z,122.57
2018-06-03T04:02:05.297Z,124.33
2018-06-03T04:02:38.574Z,118.97
2018-06-03T04:03:11.866Z,125.73
2018-06-03T04:03:45.185Z,114.30
2018-06-03T04:04:18.478Z,124.57
2018-06-03T04:04:51.794Z,116.03
2018-06-03T04:05:25.110Z,127.47
2018-06-03T04:05:58.422Z,119.00
2018-06-03T04:06:31.728Z,117.33
2018-06-03T04:07:04.780Z,123.73
2018-06-03T04:07:38.100Z,123.00
2018-06-03T04:08:11.408Z,112.70
2018-06-03T04:08:44.718Z,126.57
2018-06-03T04:09:18.027Z,114.10
2018-06-03T04:09:51.304Z,103.63
2018-06-03T04:10:24.950Z,107.80
2018-06-03T04:10:58.232Z,117.67
2018-06-03T04:11:31.528Z,110.20
2018-06-03T04:12:05.171Z,115.53
2018-06-03T04:12:38.458Z,111.07
2018-06-03T04:13:11.806Z,107.03
2018-06-03T04:13:45.602Z,110.27
2018-06-03T04:14:18.906Z,104.37
2018-06-03T04:14:52.538Z,111.17
2018-06-03T04:15:25.820Z,110.77
2018-06-03T04:15:59.096Z,97.57
2018-06-03T04:16:32.424Z,112.40
2018-06-03T04:17:06.072Z,108.20
2018-06-03T04:17:39.381Z,112.37
2018-06-03T04:18:12.665Z,104.27
2018-06-03T04:18:46.012Z,102.37
2018-06-03T04:19:19.302Z,106.33
2018-06-03T04:19:52.637Z,100.67
2018-06-03T04:20:25.997Z,108.20
2018-06-03T04:20:59.050Z,100.43
2018-06-03T04:21:32.412Z,98.73
2018-06-03T04:22:05.719Z,101.07
2018-06-03T04:22:39.012Z,102.33
2018-06-03T04:23:12.298Z,101.57
2018-06-03T04:23:45.348Z,92.90
2018-06-03T04:24:18.660Z,106.70
2018-06-03T04:24:51.955Z,101.87
2018-06-03T04:25:25.428Z,99.93
2018-06-03T04:25:58.738Z,94.27
2018-06-03T04:26:32.017Z,98.10
2018-06-03T04:27:05.297Z,96.33
2018-06-03T04:27:38.912Z,95.00
2018-06-03T04:28:12.210Z,98.63
2018-06-03T04:28:45.484Z,103.43
2018-06-03T04:29:18.802Z,99.90
2018-06-03T04:29:52.107Z,97.93
2018-06-03T04:30:25.390Z,94.20
2018-06-03T04:30:58.694Z,102.33
2018-06-03T04:31:31.998Z,97.10
2018-06-03T04:32:06.012Z,96.67
2018-06-03T04:32:39.296Z,93.47
2018-06-03T04:33:12.573Z,101.70
2018-06-03T04:33:45.866Z,102.70
2018-06-03T04:34:19.168Z,101.13
2018-06-03T04:34:52.446Z,96.67
2018-06-03T04:35:26.050Z,95.23
2018-06-03T04:35:59.330Z,92.80
2018-06-03T04:36:32.630Z,87.83
2018-06-03T04:37:05.945Z,92.00
2018-06-03T04:37:39.265Z,94.53
2018-06-03T04:38:12.549Z,87.90
2018-06-03T04:38:45.843Z,91.33
2018-06-03T04:39:19.151Z,88.07
2018-06-03T04:39:52.459Z,93.43
2018-06-03T04:40:25.708Z,94.53
2018-06-03T04:40:59.006Z,85.37
2018-06-03T04:41:32.290Z,83.13
2018-06-03T04:42:05.976Z,87.17
2018-06-03T04:42:39.294Z,87.07
2018-06-03T04:43:12.618Z,86.23
2018-06-03T04:43:45.898Z,85.57
2018-06-03T04:44:19.184Z,81.97
2018-06-03T04:44:52.482Z,92.70
2018-06-03T04:45:25.762Z,82.57
2018-06-03T04:45:59.078Z,85.77
2018-06-03T04:46:32.380Z,78.70
2018-06-03T04:47:05.919Z,82.50
2018-06-03T04:47:39.226Z,84.03
2018-06-03T04:48:12.515Z,82.43
2018-06-03T04:48:46.184Z,78.33
2018-06-03T04:49:19.679Z,81.30
2018-06-03T04:49:52.958Z,83.97
2018-06-03T04:50:26.374Z,82.60
2018-06-03T04:50:59.979Z,79.70
2018-06-03T04:51:33.276Z,78.97
2018-06-03T04:52:06.598Z,80.47
2018-06-03T04:52:39.907Z,84.73
2018-06-03T04:53:13.202Z,78.43
2018-06-03T04:53:46.482Z,84.30
2018-06-03T04:54:19.771Z,77.57
2018-06-03T04:54:53.076Z,83.93
2018-06-03T04:55:26.345Z,73.67
2018-06-03T04:55:59.615Z,78.83
2018-06-03T04:56:32.896Z,83.77
2018-06-03T04:57:06.361Z,72.27
2018-06-03T04:57:40.021Z,79.77
2018-06-03T04:58:13.343Z,69.63
2018-06-03T04:58:46.633Z,68.17
2018-06-03T04:59:19.937Z,65.00
2018-06-03T04:59:53.220Z,75.03
2018-06-03T05:00:26.549Z,75.53
2018-06-03T05:00:59.905Z,70.30
2018-06-03T05:01:33.245Z,69.20
2018-06-03T05:02:06.674Z,73.97
2018-06-03T05:02:39.974Z,70.40
2018-06-03T05:03:13.248Z,71.57
2018-06-03T05:03:46.563Z,69.10
2018-06-03T05:04:19.843Z,69.37
2018-06-03T05:04:59.891Z,73.03
2018-06-03T05:05:33.169Z,74.23
2018-06-03T05:06:06.441Z,70.20
2018-06-03T05:06:39.786Z,72.50
2018-06-03T05:07:13.236Z,73.27
2018-06-03T05:07:46.514Z,72.03
2018-06-03T05:08:19.783Z,67.47
2018-06-03T05:08:53.094Z,69.60
2018-06-03T05:09:26.381Z,69.63
2018-06-03T05:09:59.659Z,63.33
2018-06-03T05:10:32.939Z,65.43
2018-06-03T05:11:06.279Z,69.53
2018-06-03T05:11:39.560Z,68.80
2018-06-03T05:12:12.617Z,69.30
2018-06-03T05:12:45.927Z,72.87
2018-06-03T05:13:19.181Z,68.77
2018-06-03T05:13:52.461Z,69.47
2018-06-03T05:14:25.763Z,70.77
2018-06-03T05:14:58.796Z,69.30
2018-06-03T05:15:32.099Z,69.03
2018-06-03T05:16:05.845Z,71.40
2018-06-03T05:16:39.125Z,78.73
2018-06-03T05:17:12.379Z,70.70
2018-06-03T05:17:45.706Z,70.70
2018-06-03T05:18:19.080Z,70.87
2018-06-03T05:18:52.425Z,72.50
2018-06-03T05:19:25.737Z,73.07
2018-06-03T05:19:59.037Z,69.10
2018-06-03T05:20:32.367Z,73.43
2018-06-03T05:21:05.717Z,73.37
2018-06-03T05:21:39.041Z,74.37
2018-06-03T05:22:12.348Z,71.73
2018-06-03T05:22:45.661Z,74.37
2018-06-03T05:23:19.021Z,74.93
2018-06-03T05:23:52.341Z,79.23
2018-06-03T05:24:25.693Z,75.70
2018-06-03T05:24:58.996Z,77.27
2018-06-03T05:25:32.077Z,67.10
2018-06-03T05:26:05.381Z,71.67
2018-06-03T05:26:38.989Z,74.10
2018-06-03T05:27:12.271Z,73.53
2018-06-03T05:27:45.744Z,85.50
2018-06-03T05:28:19.059Z,85.47
2018-06-03T05:28:52.363Z,78.60
2018-06-03T05:29:25.748Z,73.93
2018-06-03T05:29:59.049Z,76.80
2018-06-03T05:30:32.307Z,74.73
2018-06-03T05:31:05.369Z,72.53
2018-06-03T05:31:38.633Z,70.60
2018-06-03T05:32:11.895Z,67.80
2018-06-03T05:32:45.199Z,76.47
2018-06-03T05:33:18.522Z,79.87
2018-06-03T05:33:51.825Z,76.17
2018-06-03T05:34:25.118Z,74.03
2018-06-03T05:34:58.413Z,72.43
2018-06-03T05:35:31.719Z,70.90
2018-06-03T05:36:05.046Z,72.00
2018-06-03T05:36:38.351Z,75.00
2018-06-03T05:37:11.993Z,73.33
2018-06-03T05:37:45.261Z,70.97
2018-06-03T05:38:18.321Z,69.00
2018-06-03T05:38:51.643Z,64.10
2018-06-03T05:39:24.932Z,61.90
2018-06-03T05:39:58.279Z,70.83
2018-06-03T05:40:31.561Z,61.57
2018-06-03T05:41:04.635Z,64.00
2018-06-03T05:41:37.955Z,61.10
2018-06-03T05:42:11.259Z,62.40
2018-06-03T05:42:44.883Z,62.67
2018-06-03T05:43:18.164Z,59.27
2018-06-03T05:43:51.485Z,62.33
2018-06-03T05:44:25.086Z,60.93
2018-06-03T05:44:58.401Z,62.23
2018-06-03T05:45:31.717Z,61.27
2018-06-03T05:46:05.013Z,58.10
2018-06-03T05:46:38.311Z,56.17
2018-06-03T05:47:11.589Z,61.50
2018-06-03T05:47:44.905Z,58.37
2018-06-03T05:48:18.205Z,58.03
2018-06-03T05:48:51.566Z,60.50
2018-06-03T05:49:24.847Z,54.90
2018-06-03T05:49:58.181Z,59.07
2018-06-03T05:50:31.449Z,59.73
2018-06-03T05:51:05.021Z,54.37
2018-06-03T05:51:38.347Z,55.07
2018-06-03T05:52:11.658Z,52.43
2018-06-03T05:52:44.961Z,54.00
2018-06-03T05:53:18.263Z,51.53
2018-06-03T05:53:51.587Z,48.80
2018-06-03T05:54:24.935Z,55.63
2018-06-03T05:54:58.253Z,50.67
2018-06-03T05:55:31.909Z,55.53
2018-06-03T05:56:05.185Z,53.97
2018-06-03T05:56:38.465Z,50.70
2018-06-03T05:57:12.103Z,49.53
2018-06-03T05:57:45.419Z,49.30
2018-06-03T05:58:18.682Z,47.43
2018-06-03T05:58:51.995Z,51.73
2018-06-03T05:59:25.241Z,49.23
2018-06-03T05:59:58.477Z,50.03
2018-06-03T06:00:32.077Z,51.10
2018-06-03T06:01:05.708Z,50.87
2018-06-03T06:01:38.989Z,45.43
2018-06-03T06:02:12.271Z,52.13
2018-06-03T06:02:45.515Z,51.47
2018-06-03T06:03:18.783Z,46.70
2018-06-03T06:03:52.072Z,49.47
2018-06-03T06:04:25.345Z,47.07
2018-06-03T06:04:58.639Z,48.07
2018-06-03T06:05:31.943Z,44.60
2018-06-03T06:06:05.273Z,46.40
2018-06-03T06:06:38.608Z,45.33
2018-06-03T06:07:11.915Z,44.77
2018-06-03T06:07:45.191Z,44.67
2018-06-03T06:08:18.585Z,46.00
2018-06-03T06:08:52.235Z,43.07
2018-06-03T06:09:25.549Z,46.07
2018-06-03T06:09:58.857Z,47.33
2018-06-03T06:10:32.194Z,46.87
2018-06-03T06:11:05.475Z,42.53
2018-06-03T06:11:38.793Z,45.57
2018-06-03T06:12:12.135Z,44.30
2018-06-03T06:12:45.417Z,43.33
2018-06-03T06:13:19.043Z,40.87
2018-06-03T06:13:52.437Z,42.20
2018-06-03T06:14:25.735Z,44.83
2018-06-03T06:14:59.031Z,40.70
2018-06-03T06:15:32.429Z,41.43
2018-06-03T06:16:06.281Z,43.50
2018-06-03T06:16:39.592Z,39.80
2018-06-03T06:17:12.627Z,46.27
2018-06-03T06:17:45.914Z,44.93
2018-06-03T06:18:19.225Z,43.83
2018-06-03T06:18:52.577Z,47.70
2018-06-03T06:19:25.889Z,40.90
2018-06-03T06:19:59.249Z,44.80
2018-06-03T06:20:32.609Z,47.17
2018-06-03T06:21:06.057Z,43.87
2018-06-03T06:21:39.376Z,43.33
2018-06-03T06:22:12.722Z,43.27
2018-06-03T06:22:46.035Z,42.73
2018-06-03T06:23:19.359Z,38.17
2018-06-03T06:23:52.651Z,42.27
2018-06-03T06:24:25.945Z,39.20
2018-06-03T06:24:59.281Z,42.13
2018-06-03T06:25:32.569Z,42.27
2018-06-03T06:26:05.876Z,40.03
2018-06-03T06:26:39.576Z,45.30
2018-06-03T06:27:12.979Z,41.53
2018-06-03T06:27:46.277Z,41.80
2018-06-03T06:28:19.581Z,49.17
2018-06-03T06:28:52.901Z,42.90
2018-06-03T06:29:26.260Z,44.10
2018-06-03T06:29:59.700Z,48.13
2018-06-03T06:30:32.998Z,43.77
2018-06-03T06:31:06.441Z,45.53
2018-06-03T06:31:39.730Z,41.43
2018-06-03T06:32:13.366Z,43.90
2018-06-03T06:32:46.550Z,41.93
2018-06-03T06:33:19.657Z,41.23
2018-06-03T06:33:53.022Z,41.20
2018-06-03T06:34:26.352Z,44.70
2018-06-03T06:34:59.644Z,45.37
2018-06-03T06:35:32.981Z,46.77
2018-06-03T06:36:06.304Z,42.47
2018-06-03T06:36:39.614Z,46.50
2018-06-03T06:37:12.688Z,44.87
2018-06-03T06:37:46.004Z,46.13
2018-06-03T06:38:19.287Z,43.97
2018-06-03T06:38:52.556Z,47.23
2018-06-03T06:39:25.891Z,47.70
2018-06-03T06:39:59.196Z,43.63
2018-06-03T06:40:32.845Z,50.83
2018-06-03T06:41:06.485Z,47.37
2018-06-03T06:41:40.136Z,49.13
2018-06-03T06:42:13.552Z,43.10
2018-06-03T06:42:46.871Z,51.03
2018-06-03T06:43:20.122Z,45.47
2018-06-03T06:43:53.406Z,53.03
2018-06-03T06:44:26.733Z,44.17
2018-06-03T06:45:00.021Z,45.20
2018-06-03T06:45:33.326Z,43.60
2018-06-03T06:46:06.985Z,45.70
2018-06-03T06:46:40.288Z,42.90
2018-06-03T06:47:13.589Z,42.67
2018-06-03T06:47:46.897Z,49.60
2018-06-03T06:48:20.169Z,46.93
2018-06-03T06:48:53.492Z,46.60
2018-06-03T06:49:26.837Z,48.43
2018-06-03T06:50:00.158Z,47.53
2018-06-03T06:50:33.445Z,48.63
2018-06-03T06:51:06.725Z,44.70
2018-06-03T06:51:40.008Z,43.87
2018-06-03T06:52:13.304Z,45.40
2018-06-03T06:52:46.344Z,45.87
2018-06-03T06:53:19.653Z,44.33
2018-06-03T06:53:52.959Z,45.47
2018-06-03T06:54:26.279Z,45.97
2018-06-03T06:54:59.570Z,45.50
2018-06-03T06:55:32.871Z,51.17
2018-06-03T06:56:06.493Z,47.23
2018-06-03T06:56:39.765Z,49.13
2018-06-03T06:57:13.057Z,43.27
2018-06-03T06:57:46.351Z,42.37
2018-06-03T06:58:19.667Z,43.47
2018-06-03T06:58:52.968Z,40.33
2018-06-03T06:59:26.301Z,41.37
2018-06-03T06:59:59.991Z,43.40
2018-06-03T07:00:33.661Z,44.20
2018-06-03T07:01:07.347Z,43.93
2018-06-03T07:01:40.651Z,42.63
2018-06-03T07:02:13.981Z,40.10
2018-06-03T07:02:47.882Z,43.97
2018-06-03T07:03:21.182Z,38.40
2018-06-03T07:03:54.485Z,37.87
2018-06-03T07:04:28.025Z,40.33
2018-06-03T07:05:01.303Z,38.53
2018-06-03T07:05:34.593Z,39.77
2018-06-03T07:06:07.883Z,42.27
2018-06-03T07:06:40.958Z,40.73
2018-06-03T07:07:14.787Z,35.23
2018-06-03T07:07:48.077Z,40.87
2018-06-03T07:08:21.373Z,37.13
2018-06-03T07:08:54.722Z,38.60
2018-06-03T07:09:28.088Z,37.97